createdAt,value
2022-12-01T00:01:13.851Z,80.85
2022-12-01T00:03:40.471Z,80.37
2022-12-01T00:06:15.869Z,81.04
2022-12-01T00:09:06.434Z,81.40
2022-12-01T00:11:34.321Z,80.91
2022-12-01T00:14:01.416Z,81.31
2022-12-01T00:16:28.304Z,80.93
2022-12-01T00:18:54.997Z,80.45
2022-12-01T00:21:24.030Z,81.57
2022-12-01T00:23:53.183Z,81.08
2022-12-01T00:26:21.462Z,80.91
2022-12-01T00:28:52.517Z,81.45
2022-12-01T00:31:19.839Z,80.81
2022-12-01T00:33:46.756Z,81.04
2022-12-01T00:36:13.592Z,80.83
2022-12-01T00:38:40.202Z,81.34
2022-12-01T00:41:06.863Z,81.88
2022-12-01T00:43:33.562Z,81.58
2022-12-01T00:46:00.253Z,81.60
2022-12-01T00:48:27.216Z,81.60
2022-12-01T00:50:54.778Z,81.55
2022-12-01T00:53:22.540Z,81.67
2022-12-01T00:55:49.306Z,81.20
2022-12-01T00:58:15.845Z,82.17
2022-12-01T01:00:43.106Z,81.42
2022-12-01T01:03:10.909Z,81.98
2022-12-01T01:05:38.791Z,82.41
2022-12-01T01:08:11.209Z,81.75
2022-12-01T01:10:39.521Z,81.71
2022-12-01T01:13:06.292Z,82.34
2022-12-01T01:15:33.270Z,82.20
2022-12-01T01:18:00.857Z,82.67
2022-12-01T01:20:28.246Z,82.98
2022-12-01T01:22:54.955Z,82.08
2022-12-01T01:25:21.681Z,82.35
2022-12-01T01:27:48.398Z,82.15
2022-12-01T01:30:15.506Z,82.67
2022-12-01T01:32:42.155Z,82.85
2022-12-01T01:35:09.021Z,83.06
2022-12-01T01:37:35.603Z,82.81
2022-12-01T01:40:02.203Z,82.87
2022-12-01T01:42:30.921Z,82.87
2022-12-01T01:44:59.202Z,83.38
2022-12-01T01:47:29.553Z,83.41
2022-12-01T01:50:00.652Z,83.36
2022-12-01T01:52:28.121Z,82.52
2022-12-01T01:54:55.674Z,82.80
2022-12-01T01:57:29.554Z,82.94
2022-12-01T02:00:10.034Z,82.87
2022-12-01T02:02:46.194Z,83.68
2022-12-01T02:05:17.907Z,82.37
2022-12-01T02:07:45.512Z,83.55
2022-12-01T02:10:14.414Z,83.48
2022-12-01T02:12:47.059Z,82.73
2022-12-01T02:15:52.136Z,83.64
2022-12-01T02:18:35.187Z,82.96
2022-12-01T02:21:43.358Z,82.70
2022-12-01T02:24:31.372Z,83.24
2022-12-01T02:27:02.449Z,83.72
2022-12-01T02:29:57.296Z,83.37
2022-12-01T02:32:47.222Z,83.10
2022-12-01T02:35:55.770Z,83.76
2022-12-01T02:38:38.121Z,82.68
2022-12-01T02:41:16.686Z,83.41
2022-12-01T02:43:46.092Z,83.54
2022-12-01T02:46:18.255Z,82.92
2022-12-01T02:48:49.303Z,83.30
2022-12-01T02:51:19.025Z,83.44
2022-12-01T02:53:46.599Z,83.94
2022-12-01T02:56:16.008Z,83.25
2022-12-01T02:58:43.814Z,83.63
2022-12-01T03:01:19.069Z,83.04
2022-12-01T03:04:04.635Z,82.76
2022-12-01T03:06:54.414Z,84.06
2022-12-01T03:10:08.851Z,84.21
2022-12-01T03:12:55.708Z,83.60
2022-12-01T03:15:30.440Z,83.64
2022-12-01T03:18:07.695Z,83.73
2022-12-01T03:20:40.811Z,83.57
2022-12-01T03:23:21.194Z,83.49
2022-12-01T03:25:51.813Z,83.28
2022-12-01T03:28:33.463Z,82.77
2022-12-01T03:31:07.271Z,84.13
2022-12-01T03:33:43.773Z,83.43
2022-12-01T03:36:16.723Z,82.60
2022-12-01T03:38:47.703Z,83.20
2022-12-01T03:41:19.711Z,83.20
2022-12-01T03:43:55.489Z,83.16
2022-12-01T03:46:47.807Z,82.95
2022-12-01T03:49:17.293Z,83.40
2022-12-01T03:51:49.989Z,83.10
2022-12-01T03:54:23.151Z,84.09
2022-12-01T03:56:55.411Z,83.96
2022-12-01T03:59:25.075Z,83.65
2022-12-01T04:01:51.872Z,83.20
2022-12-01T04:04:19.278Z,83.18
2022-12-01T04:06:50.201Z,84.01
2022-12-01T04:09:17.240Z,83.32
2022-12-01T04:12:02.378Z,83.37
2022-12-01T04:14:30.008Z,83.82
2022-12-01T04:16:56.648Z,83.22
2022-12-01T04:19:23.187Z,83.61
2022-12-01T04:21:49.888Z,83.95
2022-12-01T04:24:16.467Z,83.14
2022-12-01T04:26:43.518Z,83.86
2022-12-01T04:29:11.603Z,83.37
2022-12-01T04:31:38.705Z,83.65
2022-12-01T04:34:05.432Z,84.16
2022-12-01T04:36:34.176Z,83.38
2022-12-01T04:39:01.970Z,83.63
2022-12-01T04:41:28.848Z,84.35
2022-12-01T04:43:55.852Z,84.01
2022-12-01T04:46:23.433Z,84.81
2022-12-01T04:48:50.171Z,84.50
2022-12-01T04:51:16.885Z,84.05
2022-12-01T04:53:45.596Z,84.50
2022-12-01T04:56:12.269Z,83.45
2022-12-01T04:58:39.118Z,84.13
2022-12-01T05:01:09.421Z,84.22
2022-12-01T05:03:38.227Z,84.46
2022-12-01T05:06:07.521Z,84.21
2022-12-01T05:08:34.341Z,83.64
2022-12-01T05:11:02.097Z,84.02
2022-12-01T05:13:28.963Z,83.90
2022-12-01T05:16:06.175Z,84.24
2022-12-01T05:18:33.372Z,84.06
2022-12-01T05:21:00.634Z,83.81
2022-12-01T05:23:30.779Z,83.07
2022-12-01T05:25:57.614Z,83.45
2022-12-01T05:28:26.820Z,83.11
2022-12-01T05:30:54.610Z,83.53
2022-12-01T05:33:22.929Z,84.00
2022-12-01T05:35:50.600Z,84.19
2022-12-01T05:38:18.125Z,84.01
2022-12-01T05:40:53.405Z,83.83
2022-12-01T05:43:27.137Z,83.96
2022-12-01T05:45:56.535Z,84.56
2022-12-01T05:48:23.792Z,83.38
2022-12-01T05:50:50.394Z,84.10
2022-12-01T05:53:17.921Z,83.90
2022-12-01T05:55:44.818Z,83.97
2022-12-01T05:58:11.816Z,83.71
2022-12-01T06:00:45.298Z,84.05
2022-12-01T06:03:13.214Z,83.68
2022-12-01T06:05:40.557Z,84.01
2022-12-01T06:08:07.754Z,83.31
2022-12-01T06:10:34.563Z,82.92
2022-12-01T06:13:01.225Z,83.00
2022-12-01T06:15:27.801Z,83.70
2022-12-01T06:17:54.838Z,83.74
2022-12-01T06:20:21.385Z,83.77
2022-12-01T06:22:48.372Z,84.05
2022-12-01T06:25:15.098Z,83.80
2022-12-01T06:27:41.705Z,83.45
2022-12-01T06:30:09.151Z,83.76
2022-12-01T06:32:36.192Z,83.67
2022-12-01T06:35:03.039Z,83.54
2022-12-01T06:37:29.721Z,83.58
2022-12-01T06:39:56.451Z,84.17
2022-12-01T06:42:23.187Z,83.54
2022-12-01T06:44:49.971Z,84.19
2022-12-01T06:47:16.626Z,83.43
2022-12-01T06:49:43.231Z,84.56
2022-12-01T06:52:10.497Z,83.52
2022-12-01T06:54:37.675Z,84.09
2022-12-01T06:57:04.787Z,83.46
2022-12-01T06:59:31.606Z,83.50
2022-12-01T07:01:58.815Z,84.25
2022-12-01T07:04:25.452Z,83.66
2022-12-01T07:06:52.038Z,83.65
2022-12-01T07:09:18.678Z,83.92
2022-12-01T07:11:45.253Z,83.65
2022-12-01T07:14:19.740Z,83.69
2022-12-01T07:16:46.301Z,84.10
2022-12-01T07:19:13.091Z,83.79
2022-12-01T07:21:39.896Z,84.33
2022-12-01T07:24:07.053Z,84.26
2022-12-01T07:26:33.674Z,84.20
2022-12-01T07:29:00.261Z,84.25
2022-12-01T07:31:26.937Z,84.19
2022-12-01T07:33:53.521Z,84.06
2022-12-01T07:36:20.226Z,84.29
2022-12-01T07:38:46.861Z,84.38
2022-12-01T07:41:15.955Z,84.42
2022-12-01T07:43:42.819Z,83.72
2022-12-01T07:46:22.196Z,83.50
2022-12-01T07:48:49.687Z,83.57
2022-12-01T07:51:17.179Z,84.72
2022-12-01T07:53:45.358Z,84.41
2022-12-01T07:56:12.432Z,83.72
2022-12-01T07:58:39.568Z,84.28
2022-12-01T08:01:12.589Z,83.75
2022-12-01T08:03:40.033Z,84.12
2022-12-01T08:06:07.642Z,83.95
2022-12-01T08:08:36.041Z,83.95
2022-12-01T08:11:05.335Z,83.66
2022-12-01T08:13:32.721Z,84.10
2022-12-01T08:16:05.739Z,84.07
2022-12-01T08:18:35.617Z,84.66
2022-12-01T08:21:03.008Z,84.65
2022-12-01T08:23:29.639Z,84.23
2022-12-01T08:26:00.033Z,83.63
2022-12-01T08:28:26.922Z,84.03
2022-12-01T08:30:53.602Z,84.13
2022-12-01T08:33:20.226Z,83.24
2022-12-01T08:35:46.790Z,83.34
2022-12-01T08:38:13.286Z,83.14
2022-12-01T08:40:39.822Z,84.13
2022-12-01T08:43:06.424Z,83.80
2022-12-01T08:45:33.152Z,83.54
2022-12-01T08:47:59.885Z,82.82
2022-12-01T08:50:27.582Z,82.47
2022-12-01T08:52:54.550Z,83.24
2022-12-01T08:55:22.064Z,82.69
2022-12-01T08:57:48.665Z,82.53
2022-12-01T09:00:16.225Z,82.82
2022-12-01T09:02:42.779Z,81.94
2022-12-01T09:05:09.828Z,82.16
2022-12-01T09:07:36.413Z,82.22
2022-12-01T09:10:03.055Z,81.73
2022-12-01T09:12:30.196Z,80.89
2022-12-01T09:14:56.865Z,81.18
2022-12-01T09:17:23.890Z,81.61
2022-12-01T09:19:50.768Z,80.96
2022-12-01T09:22:17.579Z,80.69
2022-12-01T09:24:44.100Z,80.44
2022-12-01T09:27:10.736Z,80.53
2022-12-01T09:29:37.370Z,80.35
2022-12-01T09:32:03.895Z,80.20
2022-12-01T09:34:30.504Z,80.27
2022-12-01T09:36:58.536Z,79.80
2022-12-01T09:39:25.375Z,80.29
2022-12-01T09:41:59.645Z,80.08
2022-12-01T09:44:30.220Z,79.47
2022-12-01T09:47:06.562Z,80.03
2022-12-01T09:49:36.096Z,80.06
2022-12-01T09:52:02.736Z,79.64
2022-12-01T09:54:30.434Z,80.27
2022-12-01T09:56:59.497Z,79.34
2022-12-01T09:59:32.699Z,79.50
2022-12-01T10:02:03.323Z,79.48
2022-12-01T10:04:46.858Z,79.62
2022-12-01T10:07:30.460Z,78.99
2022-12-01T10:10:05.048Z,79.67
2022-12-01T10:12:34.417Z,80.08
2022-12-01T10:15:15.496Z,78.95
2022-12-01T10:18:14.304Z,79.34
2022-12-01T10:21:18.594Z,79.44
2022-12-01T10:23:54.288Z,79.40
2022-12-01T10:26:31.392Z,79.02
2022-12-01T10:29:13.213Z,79.70
2022-12-01T10:31:51.991Z,79.04
2022-12-01T10:34:23.807Z,78.64
2022-12-01T10:36:50.402Z,78.67
2022-12-01T10:39:23.891Z,78.08
2022-12-01T10:41:50.931Z,78.74
2022-12-01T10:44:19.042Z,78.52
2022-12-01T10:46:55.222Z,78.18
2022-12-01T10:49:36.177Z,78.39
2022-12-01T10:52:02.710Z,78.50
2022-12-01T10:54:40.740Z,79.22
2022-12-01T10:57:15.144Z,78.76
2022-12-01T11:00:01.396Z,79.16
2022-12-01T11:02:30.925Z,79.14
2022-12-01T11:05:03.085Z,78.85
2022-12-01T11:07:33.837Z,79.09
2022-12-01T11:10:06.337Z,78.38
2022-12-01T11:12:33.852Z,78.54
2022-12-01T11:15:01.697Z,77.86
2022-12-01T11:17:57.002Z,78.45
2022-12-01T11:20:27.667Z,78.51
2022-12-01T11:23:21.531Z,78.55
2022-12-01T11:26:08.938Z,78.04
2022-12-01T11:28:36.915Z,78.02
2022-12-01T11:31:08.563Z,78.10
2022-12-01T11:33:56.266Z,77.09
2022-12-01T11:36:27.867Z,78.05
2022-12-01T11:39:01.670Z,78.34
2022-12-01T11:41:33.131Z,77.63
2022-12-01T11:44:04.097Z,78.14
2022-12-01T11:46:46.273Z,77.36
2022-12-01T11:49:19.394Z,78.76
2022-12-01T11:51:46.188Z,78.13
2022-12-01T11:54:23.132Z,78.06
2022-12-01T11:57:17.360Z,78.05
2022-12-01T11:59:37.993Z,78.03
2022-12-01T12:02:46.740Z,77.08
2022-12-01T12:05:38.020Z,78.16
2022-12-01T12:08:12.042Z,77.93
2022-12-01T12:10:49.785Z,77.81
2022-12-01T12:13:16.306Z,78.36
2022-12-01T12:16:19.372Z,78.30
2022-12-01T12:19:14.756Z,77.93
2022-12-01T12:21:50.375Z,78.19
2022-12-01T12:24:52.473Z,77.10
2022-12-01T12:27:44.183Z,77.12
2022-12-01T12:30:29.798Z,77.67
2022-12-01T12:33:23.827Z,77.46
2022-12-01T12:36:08.808Z,78.28
2022-12-01T12:38:54.730Z,78.51
2022-12-01T12:41:29.606Z,78.16
2022-12-01T12:44:02.118Z,78.08
2022-12-01T12:46:40.474Z,77.73
2022-12-01T12:49:21.979Z,77.75
2022-12-01T12:52:08.079Z,77.45
2022-12-01T12:54:59.502Z,77.82
2022-12-01T12:57:37.420Z,77.29
2022-12-01T13:00:13.863Z,76.90
2022-12-01T13:02:48.419Z,77.34
2022-12-01T13:05:23.706Z,77.36
2022-12-01T13:07:52.975Z,77.85
2022-12-01T13:10:32.749Z,77.19
2022-12-01T13:13:20.996Z,77.83
2022-12-01T13:15:50.612Z,77.69
2022-12-01T13:18:29.006Z,77.46
2022-12-01T13:20:57.380Z,77.34
2022-12-01T13:23:24.647Z,77.43
2022-12-01T13:25:55.694Z,77.67
2022-12-01T13:28:29.924Z,77.42
2022-12-01T13:31:02.896Z,77.30
2022-12-01T13:33:30.126Z,78.30
2022-12-01T13:36:30.015Z,78.03
2022-12-01T13:39:11.960Z,77.52
2022-12-01T13:41:39.793Z,77.62
2022-12-01T13:44:20.282Z,77.14
2022-12-01T13:46:46.939Z,77.96
2022-12-01T13:49:42.486Z,78.05
2022-12-01T13:52:21.103Z,77.87
2022-12-01T13:55:09.609Z,77.64
2022-12-01T13:58:13.030Z,76.77
2022-12-01T14:00:41.264Z,77.88
2022-12-01T14:03:20.099Z,77.41
2022-12-01T14:05:53.249Z,77.26
2022-12-01T14:08:24.514Z,76.44
2022-12-01T14:11:00.592Z,76.44
2022-12-01T14:13:28.846Z,77.16
2022-12-01T14:15:58.853Z,76.67
2022-12-01T14:18:33.229Z,77.73
2022-12-01T14:21:01.944Z,78.28
2022-12-01T14:23:33.814Z,77.22
2022-12-01T14:26:20.667Z,77.79
2022-12-01T14:29:07.572Z,76.92
2022-12-01T14:31:34.129Z,77.59
2022-12-01T14:34:19.226Z,77.01
2022-12-01T14:36:54.490Z,77.42
2022-12-01T14:39:23.605Z,77.33
2022-12-01T14:41:56.782Z,76.67
2022-12-01T14:44:43.530Z,76.59
2022-12-01T14:47:10.311Z,76.98
2022-12-01T14:49:47.276Z,76.80
2022-12-01T14:52:32.514Z,76.29
2022-12-01T14:55:02.840Z,77.16
2022-12-01T14:57:34.413Z,76.78
2022-12-01T15:00:06.328Z,76.40
2022-12-01T15:02:33.171Z,76.48
2022-12-01T15:05:09.593Z,77.10
2022-12-01T15:07:45.715Z,76.62
2022-12-01T15:10:17.904Z,76.56
2022-12-01T15:12:44.861Z,76.79
2022-12-01T15:15:24.170Z,76.85
2022-12-01T15:17:52.481Z,76.49
2022-12-01T15:20:28.369Z,76.13
2022-12-01T15:22:55.981Z,76.49
2022-12-01T15:25:23.693Z,76.23
2022-12-01T15:28:17.705Z,76.37
2022-12-01T15:30:47.836Z,76.71
2022-12-01T15:33:25.526Z,76.40
2022-12-01T15:35:54.370Z,76.58
2022-12-01T15:38:28.801Z,76.30
2022-12-01T15:43:43.223Z,76.01
2022-12-01T15:46:15.285Z,76.27
2022-12-01T15:48:42.951Z,76.02
2022-12-01T15:51:18.046Z,76.27
2022-12-01T15:53:59.622Z,75.78
2022-12-01T15:56:30.494Z,76.37
2022-12-01T15:59:19.443Z,76.78
2022-12-01T16:01:46.048Z,76.54
2022-12-01T16:04:26.375Z,76.71
2022-12-01T16:07:09.224Z,76.29
2022-12-01T16:09:40.219Z,76.32
2022-12-01T16:12:21.785Z,76.47
2022-12-01T16:15:03.239Z,77.25
2022-12-01T16:17:48.869Z,76.57
2022-12-01T16:20:33.233Z,76.77
2022-12-01T16:23:22.381Z,76.64
2022-12-01T16:25:49.102Z,75.76
2022-12-01T16:28:23.177Z,76.57
2022-12-01T16:30:51.160Z,76.33
2022-12-01T16:33:22.139Z,76.16
2022-12-01T16:35:49.352Z,76.59
2022-12-01T16:38:20.633Z,76.84
2022-12-01T16:40:49.124Z,76.47
2022-12-01T16:43:17.923Z,76.55
2022-12-01T16:45:46.965Z,76.72
2022-12-01T16:48:13.521Z,76.30
2022-12-01T16:50:40.334Z,76.67
2022-12-01T16:53:06.877Z,76.93
2022-12-01T16:55:47.618Z,76.44
2022-12-01T16:58:14.466Z,76.65
2022-12-01T17:00:41.544Z,76.29
2022-12-01T17:03:15.949Z,76.03
2022-12-01T17:05:42.650Z,76.49
2022-12-01T17:08:09.199Z,76.27
2022-12-01T17:10:35.773Z,76.77
2022-12-01T17:13:02.279Z,76.36
2022-12-01T17:15:30.490Z,76.52
2022-12-01T17:17:57.084Z,76.03
2022-12-01T17:20:24.735Z,76.10
2022-12-01T17:22:51.739Z,76.39
2022-12-01T17:25:18.368Z,75.93
2022-12-01T17:27:45.735Z,76.57
2022-12-01T17:30:12.930Z,76.43
2022-12-01T17:32:39.496Z,76.86
2022-12-01T17:35:06.459Z,77.01
2022-12-01T17:37:33.021Z,77.12
2022-12-01T17:39:59.747Z,76.90
2022-12-01T17:42:26.220Z,76.61
2022-12-01T17:44:52.820Z,76.14
2022-12-01T17:47:19.500Z,76.28
2022-12-01T17:49:46.038Z,76.52
2022-12-01T17:52:12.693Z,76.43
2022-12-01T17:54:39.327Z,76.03
2022-12-01T17:57:07.307Z,76.64
2022-12-01T17:59:36.655Z,76.49
2022-12-01T18:02:04.564Z,76.67
2022-12-01T18:04:32.001Z,76.14
2022-12-01T18:06:59.434Z,76.59
2022-12-01T18:09:26.780Z,76.35
2022-12-01T18:11:56.280Z,76.93
2022-12-01T18:14:23.923Z,76.97
2022-12-01T18:16:50.925Z,76.56
2022-12-01T18:19:17.713Z,76.31
2022-12-01T18:21:44.293Z,76.77
2022-12-01T18:24:11.059Z,76.78
2022-12-01T18:26:39.883Z,76.53
2022-12-01T18:29:12.910Z,76.52
2022-12-01T18:31:40.938Z,76.93
2022-12-01T18:34:08.962Z,76.95
2022-12-01T18:36:38.142Z,76.53
2022-12-01T18:39:07.681Z,76.76
2022-12-01T18:41:35.312Z,77.02
2022-12-01T18:44:02.408Z,77.02
2022-12-01T18:46:29.333Z,76.71
2022-12-01T18:49:04.590Z,75.95
2022-12-01T18:51:36.626Z,76.11
2022-12-01T18:54:05.211Z,76.65
2022-12-01T18:56:32.535Z,76.60
2022-12-01T18:59:06.208Z,76.52
2022-12-01T19:01:36.590Z,77.00
2022-12-01T19:04:04.408Z,76.70
2022-12-01T19:06:32.744Z,76.58
2022-12-01T19:09:01.105Z,76.64
2022-12-01T19:11:28.351Z,76.83
2022-12-01T19:13:58.326Z,76.99
2022-12-01T19:16:25.722Z,76.83
2022-12-01T19:18:52.798Z,76.94
2022-12-01T19:21:20.347Z,76.89
2022-12-01T19:23:48.207Z,77.17
2022-12-01T19:26:20.501Z,76.88
2022-12-01T19:28:48.073Z,77.22
2022-12-01T19:31:20.597Z,77.18
2022-12-01T19:33:47.458Z,77.12
2022-12-01T19:36:23.703Z,76.96
2022-12-01T19:38:51.634Z,76.70
2022-12-01T19:41:20.663Z,77.17
2022-12-01T19:43:47.816Z,76.74
2022-12-01T19:46:17.779Z,76.73
2022-12-01T19:48:45.284Z,76.69
2022-12-01T19:51:20.801Z,76.95
2022-12-01T19:53:47.773Z,76.82
2022-12-01T19:56:14.504Z,76.87
2022-12-01T19:58:41.309Z,77.06
2022-12-01T20:01:10.501Z,76.75
2022-12-01T20:03:38.152Z,76.46
2022-12-01T20:06:08.034Z,76.89
2022-12-01T20:08:36.066Z,76.41
2022-12-01T20:11:04.385Z,76.80
2022-12-01T20:13:36.123Z,77.15
2022-12-01T20:16:06.184Z,77.04
2022-12-01T20:18:33.618Z,77.21
2022-12-01T20:21:10.027Z,77.01
2022-12-01T20:23:37.549Z,77.29
2022-12-01T20:26:06.681Z,77.38
2022-12-01T20:28:34.232Z,77.13
2022-12-01T20:31:01.126Z,76.94
2022-12-01T20:33:29.033Z,76.82
2022-12-01T20:35:57.764Z,77.12
2022-12-01T20:38:27.679Z,76.61
2022-12-01T20:40:54.581Z,77.25
2022-12-01T20:43:21.264Z,76.86
2022-12-01T20:45:48.225Z,76.75
2022-12-01T20:48:15.668Z,77.16
2022-12-01T20:50:43.484Z,77.17
2022-12-01T20:53:10.422Z,76.67
2022-12-01T20:55:37.807Z,76.92
2022-12-01T20:58:08.606Z,77.51
2022-12-01T21:00:38.434Z,77.53
2022-12-01T21:03:06.019Z,77.58
2022-12-01T21:05:33.182Z,77.43
2022-12-01T21:08:01.588Z,77.30
2022-12-01T21:10:28.591Z,77.16
2022-12-01T21:13:23.953Z,77.89
2022-12-01T21:16:01.889Z,77.69
2022-12-01T21:19:00.254Z,77.39
2022-12-01T21:21:34.532Z,77.64
2022-12-01T21:24:22.292Z,77.61
2022-12-01T21:27:21.556Z,77.43
2022-12-01T21:29:49.459Z,77.71
2022-12-01T21:32:33.296Z,77.54
2022-12-01T21:35:21.330Z,77.23
2022-12-01T21:37:49.421Z,77.29
2022-12-01T21:40:23.713Z,77.51
2022-12-01T21:42:51.515Z,77.61
2022-12-01T21:45:31.972Z,77.53
2022-12-01T21:48:13.644Z,77.55
2022-12-01T21:50:40.254Z,77.74
2022-12-01T21:53:15.941Z,77.85
2022-12-01T21:55:45.316Z,77.78
2022-12-01T21:58:24.678Z,77.44
2022-12-01T22:00:54.147Z,77.81
2022-12-01T22:03:42.523Z,78.24
2022-12-01T22:06:30.420Z,78.57
2022-12-01T22:09:11.661Z,77.90
2022-12-01T22:11:38.426Z,78.14
2022-12-01T22:14:16.050Z,78.12
2022-12-01T22:16:45.190Z,78.57
2022-12-01T22:19:14.569Z,78.11
2022-12-01T22:21:54.606Z,78.18
2022-12-01T22:24:24.178Z,78.32
2022-12-01T22:26:57.862Z,78.49
2022-12-01T22:29:35.872Z,78.38
2022-12-01T22:32:14.707Z,78.78
2022-12-01T22:35:13.466Z,79.17
2022-12-01T22:37:49.526Z,79.00
2022-12-01T22:40:48.356Z,79.00
2022-12-01T22:43:25.333Z,78.71
2022-12-01T22:46:01.845Z,78.85
2022-12-01T22:48:47.655Z,78.71
2022-12-01T22:51:14.226Z,79.01
2022-12-01T22:53:46.087Z,78.88
2022-12-01T22:56:36.710Z,78.78
2022-12-01T22:59:14.757Z,78.91
2022-12-01T23:01:48.334Z,78.46
2022-12-01T23:04:31.124Z,78.83
2022-12-01T23:06:57.767Z,78.97
2022-12-01T23:09:56.866Z,78.84
2022-12-01T23:12:31.975Z,78.65
2022-12-01T23:15:14.629Z,78.82
2022-12-01T23:17:41.296Z,78.65
2022-12-01T23:20:10.958Z,78.56
2022-12-01T23:22:38.601Z,79.28
2022-12-01T23:25:16.126Z,78.80
2022-12-01T23:27:44.981Z,79.16
2022-12-01T23:30:13.663Z,78.78
2022-12-01T23:32:40.389Z,79.23
2022-12-01T23:35:13.701Z,78.83
2022-12-01T23:37:42.172Z,79.56
2022-12-01T23:40:29.101Z,78.93
2022-12-01T23:43:02.552Z,79.22
2022-12-01T23:45:29.283Z,79.27
2022-12-01T23:47:56.909Z,79.37
2022-12-01T23:50:26.418Z,78.91
2022-12-01T23:52:53.780Z,78.54
2022-12-01T23:55:25.563Z,79.43
2022-12-01T23:57:52.619Z,78.97
